sensor_id;sensor_type;location;lat;lon;timestamp;temperature;humidity
802;DHT22;383;48.766;9.270;2022-11-25T00:01:04;3.60;99.90
802;DHT22;383;48.766;9.270;2022-11-25T00:03:32;3.70;99.90
802;DHT22;383;48.766;9.270;2022-11-25T00:06:07;3.80;99.90
802;DHT22;383;48.766;9.270;2022-11-25T00:08:34;3.90;99.90
802;DHT22;383;48.766;9.270;2022-11-25T00:11:01;3.80;99.90
802;DHT22;383;48.766;9.270;2022-11-25T00:13:29;3.90;99.90
802;DHT22;383;48.766;9.270;2022-11-25T00:16:00;3.80;99.90
802;DHT22;383;48.766;9.270;2022-11-25T00:18:27;3.80;99.90
802;DHT22;383;48.766;9.270;2022-11-25T00:20:53;3.70;99.90
802;DHT22;383;48.766;9.270;2022-11-25T00:23:20;3.70;99.90
802;DHT22;383;48.766;9.270;2022-11-25T00:25:47;3.70;99.90
802;DHT22;383;48.766;9.270;2022-11-25T00:28:14;3.70;99.90
802;DHT22;383;48.766;9.270;2022-11-25T00:30:43;3.70;99.90
802;DHT22;383;48.766;9.270;2022-11-25T00:33:10;3.70;99.90
802;DHT22;383;48.766;9.270;2022-11-25T00:35:36;3.70;99.90
802;DHT22;383;48.766;9.270;2022-11-25T00:38:03;3.70;99.90
802;DHT22;383;48.766;9.270;2022-11-25T00:40:30;3.60;99.90
802;DHT22;383;48.766;9.270;2022-11-25T00:42:56;3.60;99.90
802;DHT22;383;48.766;9.270;2022-11-25T00:45:42;3.60;99.90
802;DHT22;383;48.766;9.270;2022-11-25T00:48:09;3.60;99.90
802;DHT22;383;48.766;9.270;2022-11-25T00:50:36;3.60;99.90
802;DHT22;383;48.766;9.270;2022-11-25T00:53:03;3.60;99.90
802;DHT22;383;48.766;9.270;2022-11-25T00:55:29;3.60;99.90
802;DHT22;383;48.766;9.270;2022-11-25T00:58:16;3.60;99.90
802;DHT22;383;48.766;9.270;2022-11-25T01:00:44;3.70;99.90
802;DHT22;383;48.766;9.270;2022-11-25T01:03:11;3.70;99.90
802;DHT22;383;48.766;9.270;2022-11-25T01:05:38;3.80;99.90
802;DHT22;383;48.766;9.270;2022-11-25T01:08:04;3.80;99.90
802;DHT22;383;48.766;9.270;2022-11-25T01:10:31;3.90;99.90
802;DHT22;383;48.766;9.270;2022-11-25T01:12:58;4.00;99.90
802;DHT22;383;48.766;9.270;2022-11-25T01:15:24;4.10;99.90
802;DHT22;383;48.766;9.270;2022-11-25T01:17:53;4.20;99.90
802;DHT22;383;48.766;9.270;2022-11-25T01:20:19;4.30;99.90
802;DHT22;383;48.766;9.270;2022-11-25T01:22:46;4.30;99.90
802;DHT22;383;48.766;9.270;2022-11-25T01:25:13;4.40;99.90
802;DHT22;383;48.766;9.270;2022-11-25T01:27:40;4.40;99.90
802;DHT22;383;48.766;9.270;2022-11-25T01:30:08;4.50;99.90
802;DHT22;383;48.766;9.270;2022-11-25T01:32:35;4.50;99.90
802;DHT22;383;48.766;9.270;2022-11-25T01:35:04;4.50;99.90
802;DHT22;383;48.766;9.270;2022-11-25T01:37:31;4.60;99.90
802;DHT22;383;48.766;9.270;2022-11-25T01:39:58;4.60;99.90
802;DHT22;383;48.766;9.270;2022-11-25T01:42:28;4.60;99.90
802;DHT22;383;48.766;9.270;2022-11-25T01:45:27;4.60;99.90
802;DHT22;383;48.766;9.270;2022-11-25T01:47:59;4.70;99.90
802;DHT22;383;48.766;9.270;2022-11-25T01:50:31;4.70;99.80
802;DHT22;383;48.766;9.270;2022-11-25T01:52:59;4.70;99.50
802;DHT22;383;48.766;9.270;2022-11-25T01:55:29;4.70;99.50
802;DHT22;383;48.766;9.270;2022-11-25T01:57:58;4.70;99.70
802;DHT22;383;48.766;9.270;2022-11-25T02:00:27;4.70;99.70
802;DHT22;383;48.766;9.270;2022-11-25T02:02:55;4.70;99.80
802;DHT22;383;48.766;9.270;2022-11-25T02:05:28;4.60;99.90
802;DHT22;383;48.766;9.270;2022-11-25T02:07:57;4.60;99.90
802;DHT22;383;48.766;9.270;2022-11-25T02:10:27;4.60;99.90
802;DHT22;383;48.766;9.270;2022-11-25T02:12:55;4.60;99.90
802;DHT22;383;48.766;9.270;2022-11-25T02:15:22;4.60;99.90
802;DHT22;383;48.766;9.270;2022-11-25T02:17:50;4.70;99.90
802;DHT22;383;48.766;9.270;2022-11-25T02:20:19;4.70;99.40
802;DHT22;383;48.766;9.270;2022-11-25T02:22:54;4.70;99.50
802;DHT22;383;48.766;9.270;2022-11-25T02:25:25;4.70;99.80
802;DHT22;383;48.766;9.270;2022-11-25T02:27:56;4.60;99.60
802;DHT22;383;48.766;9.270;2022-11-25T02:30:24;4.60;99.80
802;DHT22;383;48.766;9.270;2022-11-25T02:32:51;4.60;99.90
802;DHT22;383;48.766;9.270;2022-11-25T02:35:32;4.70;99.90
802;DHT22;383;48.766;9.270;2022-11-25T02:38:04;4.60;99.50
802;DHT22;383;48.766;9.270;2022-11-25T02:40:34;4.60;99.40
802;DHT22;383;48.766;9.270;2022-11-25T02:43:02;4.60;99.20
802;DHT22;383;48.766;9.270;2022-11-25T02:45:48;4.60;98.90
802;DHT22;383;48.766;9.270;2022-11-25T02:48:16;4.60;99.10
802;DHT22;383;48.766;9.270;2022-11-25T02:50:43;4.60;99.00
802;DHT22;383;48.766;9.270;2022-11-25T02:53:10;4.60;98.70
802;DHT22;383;48.766;9.270;2022-11-25T02:55:38;4.60;99.20
802;DHT22;383;48.766;9.270;2022-11-25T02:58:05;4.60;99.10
802;DHT22;383;48.766;9.270;2022-11-25T03:00:32;4.50;99.30
802;DHT22;383;48.766;9.270;2022-11-25T03:02:59;4.50;99.50
802;DHT22;383;48.766;9.270;2022-11-25T03:05:25;4.60;99.50
802;DHT22;383;48.766;9.270;2022-11-25T03:07:52;4.50;99.40
802;DHT22;383;48.766;9.270;2022-11-25T03:10:19;4.50;99.40
802;DHT22;383;48.766;9.270;2022-11-25T03:12:47;4.60;99.00
802;DHT22;383;48.766;9.270;2022-11-25T03:15:14;4.50;98.70
802;DHT22;383;48.766;9.270;2022-11-25T03:17:41;4.50;98.90
802;DHT22;383;48.766;9.270;2022-11-25T03:20:09;4.50;98.90
802;DHT22;383;48.766;9.270;2022-11-25T03:22:37;4.50;98.70
802;DHT22;383;48.766;9.270;2022-11-25T03:25:04;4.50;98.70
802;DHT22;383;48.766;9.270;2022-11-25T03:27:32;4.40;98.50
802;DHT22;383;48.766;9.270;2022-11-25T03:30:01;4.30;98.40
802;DHT22;383;48.766;9.270;2022-11-25T03:32:27;4.30;98.60
802;DHT22;383;48.766;9.270;2022-11-25T03:34:54;4.30;98.40
802;DHT22;383;48.766;9.270;2022-11-25T03:37:21;4.20;98.50
802;DHT22;383;48.766;9.270;2022-11-25T03:39:48;4.20;98.60
802;DHT22;383;48.766;9.270;2022-11-25T03:42:14;4.20;98.30
802;DHT22;383;48.766;9.270;2022-11-25T03:44:41;4.20;98.30
802;DHT22;383;48.766;9.270;2022-11-25T03:47:09;4.10;98.20
802;DHT22;383;48.766;9.270;2022-11-25T03:49:36;4.10;98.00
802;DHT22;383;48.766;9.270;2022-11-25T03:52:03;4.20;97.40
802;DHT22;383;48.766;9.270;2022-11-25T03:54:30;4.10;97.50
802;DHT22;383;48.766;9.270;2022-11-25T03:56:57;4.10;97.90
802;DHT22;383;48.766;9.270;2022-11-25T03:59:24;4.00;97.60
802;DHT22;383;48.766;9.270;2022-11-25T04:01:50;3.90;98.20
802;DHT22;383;48.766;9.270;2022-11-25T04:04:18;3.80;98.60
802;DHT22;383;48.766;9.270;2022-11-25T04:06:45;3.80;98.90
802;DHT22;383;48.766;9.270;2022-11-25T04:09:12;3.70;98.80
802;DHT22;383;48.766;9.270;2022-11-25T04:11:39;3.80;99.40
802;DHT22;383;48.766;9.270;2022-11-25T04:14:23;3.80;99.70
802;DHT22;383;48.766;9.270;2022-11-25T04:16:50;3.70;99.60
802;DHT22;383;48.766;9.270;2022-11-25T04:19:18;3.70;99.90
802;DHT22;383;48.766;9.270;2022-11-25T04:21:45;3.80;99.90
802;DHT22;383;48.766;9.270;2022-11-25T04:24:12;3.70;99.90
802;DHT22;383;48.766;9.270;2022-11-25T04:26:38;3.70;99.90
802;DHT22;383;48.766;9.270;2022-11-25T04:29:05;3.70;99.90
802;DHT22;383;48.766;9.270;2022-11-25T04:31:32;3.80;99.90
802;DHT22;383;48.766;9.270;2022-11-25T04:33:59;3.80;99.90
802;DHT22;383;48.766;9.270;2022-11-25T04:36:27;3.80;99.90
802;DHT22;383;48.766;9.270;2022-11-25T04:38:54;3.90;99.90
802;DHT22;383;48.766;9.270;2022-11-25T04:41:20;3.90;99.90
802;DHT22;383;48.766;9.270;2022-11-25T04:43:47;4.00;99.90
802;DHT22;383;48.766;9.270;2022-11-25T04:46:15;4.00;99.90
802;DHT22;383;48.766;9.270;2022-11-25T04:48:43;4.00;99.90
802;DHT22;383;48.766;9.270;2022-11-25T04:51:09;4.00;99.90
802;DHT22;383;48.766;9.270;2022-11-25T04:53:38;4.10;99.90
802;DHT22;383;48.766;9.270;2022-11-25T04:56:05;4.20;99.90
802;DHT22;383;48.766;9.270;2022-11-25T04:58:32;4.20;99.90
802;DHT22;383;48.766;9.270;2022-11-25T05:01:16;4.20;99.90
802;DHT22;383;48.766;9.270;2022-11-25T05:03:47;4.30;99.90
802;DHT22;383;48.766;9.270;2022-11-25T05:06:14;4.30;99.90
802;DHT22;383;48.766;9.270;2022-11-25T05:08:42;4.30;99.90
802;DHT22;383;48.766;9.270;2022-11-25T05:11:09;4.30;99.90
802;DHT22;383;48.766;9.270;2022-11-25T05:13:35;4.30;99.90
802;DHT22;383;48.766;9.270;2022-11-25T05:16:02;4.20;99.90
802;DHT22;383;48.766;9.270;2022-11-25T05:18:29;4.30;99.90
802;DHT22;383;48.766;9.270;2022-11-25T05:20:59;4.20;99.90
802;DHT22;383;48.766;9.270;2022-11-25T05:23:27;4.30;99.90
802;DHT22;383;48.766;9.270;2022-11-25T05:25:59;4.30;99.90
802;DHT22;383;48.766;9.270;2022-11-25T05:28:26;4.20;99.90
802;DHT22;383;48.766;9.270;2022-11-25T05:30:53;4.20;99.90
802;DHT22;383;48.766;9.270;2022-11-25T05:33:21;4.20;99.90
802;DHT22;383;48.766;9.270;2022-11-25T05:35:53;4.10;99.90
802;DHT22;383;48.766;9.270;2022-11-25T05:38:20;4.10;99.90
802;DHT22;383;48.766;9.270;2022-11-25T05:40:47;4.10;99.90
802;DHT22;383;48.766;9.270;2022-11-25T05:43:15;4.10;99.90
802;DHT22;383;48.766;9.270;2022-11-25T05:45:42;4.10;99.90
802;DHT22;383;48.766;9.270;2022-11-25T05:48:09;4.20;99.90
802;DHT22;383;48.766;9.270;2022-11-25T05:50:36;4.20;99.90
802;DHT22;383;48.766;9.270;2022-11-25T05:53:03;4.20;99.90
802;DHT22;383;48.766;9.270;2022-11-25T05:55:30;4.20;99.90
802;DHT22;383;48.766;9.270;2022-11-25T05:57:57;4.10;99.90
802;DHT22;383;48.766;9.270;2022-11-25T06:00:26;4.10;99.90
802;DHT22;383;48.766;9.270;2022-11-25T06:02:53;4.10;99.50
802;DHT22;383;48.766;9.270;2022-11-25T06:05:20;4.10;99.00
802;DHT22;383;48.766;9.270;2022-11-25T06:07:47;4.00;99.20
802;DHT22;383;48.766;9.270;2022-11-25T06:10:14;4.00;98.90
802;DHT22;383;48.766;9.270;2022-11-25T06:12:41;3.90;98.70
802;DHT22;383;48.766;9.270;2022-11-25T06:15:09;3.90;98.60
802;DHT22;383;48.766;9.270;2022-11-25T06:17:37;3.90;98.00
802;DHT22;383;48.766;9.270;2022-11-25T06:20:07;3.90;97.90
802;DHT22;383;48.766;9.270;2022-11-25T06:22:34;3.80;98.00
802;DHT22;383;48.766;9.270;2022-11-25T06:25:01;3.70;98.00
802;DHT22;383;48.766;9.270;2022-11-25T06:27:27;3.70;97.60
802;DHT22;383;48.766;9.270;2022-11-25T06:29:54;3.70;97.70
802;DHT22;383;48.766;9.270;2022-11-25T06:32:21;3.70;97.70
802;DHT22;383;48.766;9.270;2022-11-25T06:34:49;3.70;97.30
802;DHT22;383;48.766;9.270;2022-11-25T06:37:16;3.60;97.20
802;DHT22;383;48.766;9.270;2022-11-25T06:39:43;3.50;97.60
802;DHT22;383;48.766;9.270;2022-11-25T06:42:10;3.40;98.00
802;DHT22;383;48.766;9.270;2022-11-25T06:44:37;3.30;98.40
802;DHT22;383;48.766;9.270;2022-11-25T06:47:03;3.30;98.60
802;DHT22;383;48.766;9.270;2022-11-25T06:49:30;3.30;98.60
802;DHT22;383;48.766;9.270;2022-11-25T06:51:58;3.30;98.80
802;DHT22;383;48.766;9.270;2022-11-25T06:54:25;3.30;98.00
802;DHT22;383;48.766;9.270;2022-11-25T06:56:52;3.30;98.40
802;DHT22;383;48.766;9.270;2022-11-25T06:59:19;3.30;98.60
802;DHT22;383;48.766;9.270;2022-11-25T07:01:46;3.20;98.90
802;DHT22;383;48.766;9.270;2022-11-25T07:04:13;3.20;99.30
802;DHT22;383;48.766;9.270;2022-11-25T07:06:39;3.20;99.60
802;DHT22;383;48.766;9.270;2022-11-25T07:09:09;3.20;99.80
802;DHT22;383;48.766;9.270;2022-11-25T07:11:38;3.30;99.90
802;DHT22;383;48.766;9.270;2022-11-25T07:14:07;3.30;99.90
802;DHT22;383;48.766;9.270;2022-11-25T07:16:36;3.40;99.90
802;DHT22;383;48.766;9.270;2022-11-25T07:19:03;3.60;99.90
802;DHT22;383;48.766;9.270;2022-11-25T07:21:31;3.70;99.90
802;DHT22;383;48.766;9.270;2022-11-25T07:23:59;3.90;99.90
802;DHT22;383;48.766;9.270;2022-11-25T07:26:30;3.90;99.90
802;DHT22;383;48.766;9.270;2022-11-25T07:28:58;4.00;99.90
802;DHT22;383;48.766;9.270;2022-11-25T07:31:27;4.20;99.90
802;DHT22;383;48.766;9.270;2022-11-25T07:33:55;4.30;99.90
802;DHT22;383;48.766;9.270;2022-11-25T07:36:23;4.40;99.90
802;DHT22;383;48.766;9.270;2022-11-25T07:38:50;4.50;99.90
802;DHT22;383;48.766;9.270;2022-11-25T07:41:19;4.70;99.90
802;DHT22;383;48.766;9.270;2022-11-25T07:43:49;4.80;99.90
802;DHT22;383;48.766;9.270;2022-11-25T07:46:19;5.00;99.90
802;DHT22;383;48.766;9.270;2022-11-25T07:48:46;5.10;99.90
802;DHT22;383;48.766;9.270;2022-11-25T07:51:14;5.10;99.90
802;DHT22;383;48.766;9.270;2022-11-25T07:53:41;5.30;99.90
802;DHT22;383;48.766;9.270;2022-11-25T07:56:08;5.40;99.30
802;DHT22;383;48.766;9.270;2022-11-25T07:58:34;5.50;99.30
802;DHT22;383;48.766;9.270;2022-11-25T08:01:03;5.60;99.30
802;DHT22;383;48.766;9.270;2022-11-25T08:03:31;5.70;98.10
802;DHT22;383;48.766;9.270;2022-11-25T08:05:59;5.70;97.90
802;DHT22;383;48.766;9.270;2022-11-25T08:08:26;5.70;97.60
802;DHT22;383;48.766;9.270;2022-11-25T08:10:53;5.80;97.40
802;DHT22;383;48.766;9.270;2022-11-25T08:13:20;5.90;96.90
802;DHT22;383;48.766;9.270;2022-11-25T08:15:47;5.90;97.20
802;DHT22;383;48.766;9.270;2022-11-25T08:18:15;6.00;96.80
802;DHT22;383;48.766;9.270;2022-11-25T08:20:42;6.00;96.90
802;DHT22;383;48.766;9.270;2022-11-25T08:23:09;6.00;97.20
802;DHT22;383;48.766;9.270;2022-11-25T08:25:38;6.10;97.20
802;DHT22;383;48.766;9.270;2022-11-25T08:28:06;6.20;96.80
802;DHT22;383;48.766;9.270;2022-11-25T08:30:33;6.30;95.90
802;DHT22;383;48.766;9.270;2022-11-25T08:32:59;6.30;95.50
802;DHT22;383;48.766;9.270;2022-11-25T08:35:30;6.30;95.80
802;DHT22;383;48.766;9.270;2022-11-25T08:38:02;6.30;96.30
802;DHT22;383;48.766;9.270;2022-11-25T08:40:29;6.40;96.40
802;DHT22;383;48.766;9.270;2022-11-25T08:42:56;6.50;96.00
802;DHT22;383;48.766;9.270;2022-11-25T08:45:23;6.50;96.10
802;DHT22;383;48.766;9.270;2022-11-25T08:47:49;6.40;95.00
802;DHT22;383;48.766;9.270;2022-11-25T08:50:16;6.20;96.10
802;DHT22;383;48.766;9.270;2022-11-25T08:52:44;6.20;97.00
802;DHT22;383;48.766;9.270;2022-11-25T08:55:11;6.30;97.10
802;DHT22;383;48.766;9.270;2022-11-25T08:57:38;6.20;96.80
802;DHT22;383;48.766;9.270;2022-11-25T09:00:06;6.20;96.70
802;DHT22;383;48.766;9.270;2022-11-25T09:02:33;6.30;96.30
802;DHT22;383;48.766;9.270;2022-11-25T09:05:00;6.20;95.60
802;DHT22;383;48.766;9.270;2022-11-25T09:07:26;6.20;96.00
802;DHT22;383;48.766;9.270;2022-11-25T09:09:54;6.10;96.70
802;DHT22;383;48.766;9.270;2022-11-25T09:12:21;6.10;96.70
802;DHT22;383;48.766;9.270;2022-11-25T09:14:48;6.10;97.00
802;DHT22;383;48.766;9.270;2022-11-25T23:35:55;7.30;98.40
802;DHT22;383;48.766;9.270;2022-11-25T23:38:24;7.30;98.20
802;DHT22;383;48.766;9.270;2022-11-25T23:40:51;7.30;98.70
802;DHT22;383;48.766;9.270;2022-11-25T23:43:18;7.20;98.60
802;DHT22;383;48.766;9.270;2022-11-25T23:45:49;7.20;99.00
802;DHT22;383;48.766;9.270;2022-11-25T23:48:17;7.30;99.00
802;DHT22;383;48.766;9.270;2022-11-25T23:50:45;7.30;98.70
802;DHT22;383;48.766;9.270;2022-11-25T23:53:20;7.40;98.80
802;DHT22;383;48.766;9.270;2022-11-25T23:55:47;7.40;98.90
802;DHT22;383;48.766;9.270;2022-11-25T23:58:17;7.40;98.50
